Time;durP1;ratioP1;P1;durP2;ratioP2;P2;SDS_P1;SDS_P2;PMS_P1;PMS_P2;Temp;Humidity;BMP_temperature;BMP_pressure;BME280_temperature;BME280_humidity;BME280_pressure;Samples;Min_cycle;Max_cycle;Signal;HPM_P1;HPM_P2
2022/10/17 00:02:04;;;;;;;3.62;2.40;;;17.20;99.90;;;;;;1927852;73;21142;-73
2022/10/17 00:04:55;;;;;;;3.62;2.12;;;17.20;99.90;;;;;;1914407;74;21104;-74
2022/10/17 00:07:47;;;;;;;3.77;2.20;;;17.10;99.90;;;;;;1904442;75;21122;-73
2022/10/17 00:10:38;;;;;;;5.28;2.10;;;17.10;99.90;;;;;;1916840;75;21099;-74
2022/10/17 00:13:30;;;;;;;5.80;2.27;;;17.20;99.90;;;;;;1912145;74;21130;-74
2022/10/17 00:16:26;;;;;;;2.08;1.55;;;17.20;99.90;;;;;;1912994;74;21122;-74
2022/10/17 00:19:17;;;;;;;3.27;1.50;;;17.10;99.90;;;;;;1916879;75;21056;-74
2022/10/17 00:22:08;;;;;;;3.62;1.55;;;17.10;99.90;;;;;;1904311;75;21059;-74
2022/10/17 00:24:59;;;;;;;4.08;1.80;;;17.10;99.90;;;;;;1904451;75;21651;-73
2022/10/17 00:27:50;;;;;;;2.77;1.50;;;17.10;99.90;;;;;;1904421;75;21107;-74
2022/10/17 00:30:41;;;;;;;3.47;1.60;;;17.00;99.90;;;;;;1916913;75;21129;-74
2022/10/17 00:33:34;;;;;;;2.80;1.52;;;17.00;99.90;;;;;;1916666;75;21063;-74
2022/10/17 00:36:26;;;;;;;3.33;1.82;;;17.10;99.90;;;;;;1916844;75;21619;-74
2022/10/17 00:39:17;;;;;;;1.90;1.52;;;17.00;99.90;;;;;;1904456;75;21109;-73
2022/10/17 00:42:12;;;;;;;3.55;1.60;;;17.00;99.90;;;;;;1916815;75;21103;-73
2022/10/17 00:45:09;;;;;;;2.12;1.55;;;17.10;99.90;;;;;;1904522;75;21110;-73
2022/10/17 00:48:03;;;;;;;2.85;1.40;;;17.10;99.90;;;;;;1917096;75;21107;-74
2022/10/17 00:50:55;;;;;;;2.35;1.52;;;17.10;99.90;;;;;;1904573;75;21060;-74
2022/10/17 00:53:48;;;;;;;2.92;1.50;;;17.10;99.90;;;;;;1921575;73;21145;-73
2022/10/17 00:56:40;;;;;;;4.83;2.22;;;17.00;99.90;;;;;;1916245;74;21072;-73
2022/10/17 00:59:33;;;;;;;3.17;1.90;;;17.00;99.90;;;;;;1931235;73;21605;-74
2022/10/17 01:02:25;;;;;;;3.52;1.60;;;16.90;99.90;;;;;;1901583;74;21531;-74
2022/10/17 01:05:18;;;;;;;4.85;1.80;;;16.90;99.90;;;;;;1927214;74;21043;-74
2022/10/17 01:08:11;;;;;;;3.50;1.75;;;16.80;99.90;;;;;;1836208;77;21173;-74
2022/10/17 01:11:06;;;;;;;4.28;1.77;;;16.90;99.90;;;;;;1899195;75;21149;-74
2022/10/17 01:14:00;;;;;;;1.87;1.50;;;16.90;99.90;;;;;;1900813;75;21190;-75
2022/10/17 01:16:54;;;;;;;1.85;1.60;;;16.90;99.90;;;;;;1914637;74;21156;-74
2022/10/17 01:20:01;;;;;;;3.83;1.62;;;16.80;99.90;;;;;;1918790;74;21050;-74
2022/10/17 01:22:55;;;;;;;3.52;1.90;;;16.80;99.90;;;;;;1931130;74;21515;-73
2022/10/17 01:25:52;;;;;;;3.35;1.60;;;16.70;99.90;;;;;;1927683;74;21620;-74
2022/10/17 01:28:57;;;;;;;3.27;1.62;;;16.60;99.90;;;;;;1902986;74;21166;-74
2022/10/17 01:31:51;;;;;;;3.42;1.57;;;16.70;99.90;;;;;;1895978;75;21522;-74
2022/10/17 01:34:47;;;;;;;3.50;1.87;;;16.70;99.90;;;;;;1921001;74;21522;-74
2022/10/17 01:37:42;;;;;;;3.25;1.50;;;16.60;99.90;;;;;;1921210;74;21161;-74
2022/10/17 01:40:37;;;;;;;2.85;1.70;;;16.60;99.90;;;;;;1926677;74;21177;-74
2022/10/17 01:43:32;;;;;;;3.72;2.00;;;16.50;99.90;;;;;;1894243;75;21147;-73
2022/10/17 01:46:27;;;;;;;4.53;2.10;;;16.40;99.90;;;;;;1896051;75;21164;-73
2022/10/17 01:49:21;;;;;;;3.70;2.10;;;16.40;99.90;;;;;;1899153;74;21589;-74
2022/10/17 01:52:17;;;;;;;3.25;2.30;;;16.40;99.90;;;;;;1925091;74;21189;-74
2022/10/17 01:55:13;;;;;;;2.83;2.20;;;16.40;99.90;;;;;;1924506;74;21183;-74
2022/10/17 01:58:07;;;;;;;4.33;2.25;;;16.40;99.90;;;;;;1926441;74;21201;-74
2022/10/17 02:01:01;;;;;;;5.12;2.27;;;16.40;99.90;;;;;;1911715;74;21142;-74
2022/10/17 02:03:56;;;;;;;2.62;2.08;;;16.30;99.90;;;;;;1917933;73;21120;-74
2022/10/17 02:06:47;;;;;;;4.35;2.25;;;16.30;99.90;;;;;;1861495;77;21265;-75
2022/10/17 02:09:39;;;;;;;2.60;1.87;;;16.20;99.90;;;;;;1847054;77;21151;-74
2022/10/17 02:12:37;;;;;;;3.65;2.10;;;16.30;99.90;;;;;;1840796;78;21196;-75
2022/10/17 02:15:59;;;;;;;3.90;1.95;;;16.30;99.90;;;;;;1840845;78;21383;-75
2022/10/17 02:19:04;;;;;;;2.72;1.67;;;16.30;99.90;;;;;;1853814;77;21531;-74
2022/10/17 02:22:00;;;;;;;3.05;2.10;;;16.20;99.90;;;;;;1840668;78;21079;-75
2022/10/17 02:24:54;;;;;;;3.10;1.80;;;16.10;99.90;;;;;;1861781;77;21122;-74
2022/10/17 02:27:49;;;;;;;5.47;1.90;;;16.10;99.90;;;;;;1840887;78;21104;-73
2022/10/17 02:30:44;;;;;;;5.05;1.90;;;16.20;99.90;;;;;;1840746;78;21076;-73
2022/10/17 02:33:38;;;;;;;2.85;1.90;;;16.20;99.90;;;;;;1840784;78;21530;-73
2022/10/17 02:36:33;;;;;;;4.42;1.62;;;16.20;99.90;;;;;;1840724;78;21075;-73
2022/10/17 02:39:26;;;;;;;6.05;2.40;;;16.10;99.90;;;;;;1847381;77;21103;-73
2022/10/17 02:42:20;;;;;;;3.70;1.90;;;16.10;99.90;;;;;;1848708;77;21180;-73
2022/10/17 02:45:13;;;;;;;4.10;1.87;;;16.00;99.90;;;;;;1840690;78;21142;-73
2022/10/17 02:48:07;;;;;;;3.98;1.95;;;15.90;99.90;;;;;;1853895;77;21122;-73
2022/10/17 02:51:03;;;;;;;3.12;2.27;;;15.90;99.90;;;;;;1891236;75;21572;-75
2022/10/17 02:53:58;;;;;;;5.85;1.92;;;15.80;99.90;;;;;;1867882;76;21141;-74
2022/10/17 02:56:53;;;;;;;3.55;2.20;;;15.70;99.90;;;;;;1837004;78;21127;-74
2022/10/17 02:59:45;;;;;;;3.17;1.82;;;15.60;99.90;;;;;;1836716;78;21631;-74
2022/10/17 03:02:45;;;;;;;5.08;1.82;;;15.80;99.90;;;;;;1846457;78;21204;-74
2022/10/17 03:05:36;;;;;;;5.33;1.92;;;15.80;99.90;;;;;;1917226;74;21102;-74
2022/10/17 03:08:28;;;;;;;3.05;1.85;;;15.90;99.90;;;;;;1917010;73;21118;-74
2022/10/17 03:11:19;;;;;;;3.47;1.85;;;15.80;99.90;;;;;;1916918;75;21070;-74
2022/10/17 03:14:11;;;;;;;7.10;2.17;;;15.70;99.90;;;;;;1930221;73;21145;-74
2022/10/17 03:17:02;;;;;;;6.47;2.08;;;15.70;99.90;;;;;;1916384;73;21110;-74
2022/10/17 03:19:55;;;;;;;4.25;2.00;;;15.60;99.90;;;;;;1939696;73;21140;-74
2022/10/17 03:22:47;;;;;;;7.47;1.98;;;15.70;99.90;;;;;;1916834;73;21159;-74
2022/10/17 03:25:38;;;;;;;3.30;1.98;;;15.60;99.90;;;;;;1935967;73;21498;-73
2022/10/17 03:28:30;;;;;;;3.05;2.05;;;15.60;99.90;;;;;;1916643;75;21152;-73
2022/10/17 03:31:21;;;;;;;5.08;1.90;;;15.60;99.90;;;;;;1916847;75;21560;-73
2022/10/17 03:34:15;;;;;;;5.25;1.90;;;15.50;99.90;;;;;;1916814;75;21113;-73
2022/10/17 03:37:06;;;;;;;2.62;2.00;;;15.60;99.90;;;;;;1916861;75;21114;-74
2022/10/17 03:39:59;;;;;;;4.03;2.20;;;15.50;99.90;;;;;;1916880;75;21154;-73
2022/10/17 03:42:50;;;;;;;4.47;1.95;;;15.50;99.90;;;;;;1916606;73;21133;-73
2022/10/17 03:45:41;;;;;;;5.08;1.90;;;15.50;99.90;;;;;;1921036;73;21061;-73
2022/10/17 03:48:33;;;;;;;3.60;2.02;;;15.50;99.90;;;;;;1929395;73;21517;-75
2022/10/17 03:51:26;;;;;;;2.27;1.87;;;15.50;99.90;;;;;;1916932;75;21099;-75
2022/10/17 03:54:19;;;;;;;6.12;1.70;;;15.50;99.90;;;;;;1916917;75;21153;-75
2022/10/17 03:57:10;;;;;;;3.83;2.60;;;15.50;99.90;;;;;;1940091;73;21529;-74
2022/10/17 04:00:02;;;;;;;5.80;2.20;;;15.50;99.90;;;;;;1916859;75;21596;-73
2022/10/17 04:02:55;;;;;;;3.45;2.30;;;15.50;99.90;;;;;;1916833;75;21120;-73
2022/10/17 04:05:48;;;;;;;8.23;2.55;;;15.50;99.90;;;;;;1917037;75;21160;-74
2022/10/17 04:08:41;;;;;;;4.90;2.33;;;15.50;99.90;;;;;;1916921;75;21120;-74
2022/10/17 04:11:37;;;;;;;4.28;2.12;;;15.50;99.90;;;;;;1916963;75;21107;-74
2022/10/17 04:14:28;;;;;;;4.58;2.15;;;15.40;99.90;;;;;;1916787;75;21149;-74
2022/10/17 04:17:19;;;;;;;5.37;2.50;;;15.40;99.90;;;;;;1932495;73;21133;-74
2022/10/17 04:20:12;;;;;;;5.00;2.60;;;15.40;99.90;;;;;;1940741;73;21116;-73
2022/10/17 04:23:04;;;;;;;5.00;2.95;;;15.40;99.90;;;;;;1922721;73;21082;-73
2022/10/17 04:25:57;;;;;;;4.45;3.33;;;15.30;99.90;;;;;;1897210;73;21038;-74
2022/10/17 04:28:50;;;;;;;6.92;4.03;;;15.30;99.90;;;;;;1916886;75;21564;-74
2022/10/17 04:31:41;;;;;;;7.00;4.87;;;15.30;99.90;;;;;;1917040;75;21129;-74
2022/10/17 04:34:43;;;;;;;6.15;4.28;;;15.20;99.90;;;;;;1927851;73;21063;-74
2022/10/17 04:37:35;;;;;;;6.20;4.08;;;15.10;99.90;;;;;;1922547;73;21135;-74
2022/10/17 04:40:28;;;;;;;4.60;2.95;;;15.10;99.90;;;;;;1917955;73;21115;-74
2022/10/17 04:43:19;;;;;;;4.45;2.40;;;15.00;99.90;;;;;;1932738;73;21133;-74
2022/10/17 04:46:14;;;;;;;4.33;2.45;;;15.00;99.90;;;;;;1916738;75;21154;-74
2022/10/17 04:49:07;;;;;;;5.62;2.45;;;15.00;99.90;;;;;;1924869;73;21134;-73
2022/10/17 04:51:59;;;;;;;4.17;2.65;;;15.00;99.90;;;;;;1950671;73;21124;-73
2022/10/17 04:54:53;;;;;;;5.20;2.85;;;15.00;99.90;;;;;;1950819;73;21063;-74
2022/10/17 04:57:44;;;;;;;7.65;2.80;;;15.00;99.90;;;;;;1936039;73;21532;-74
2022/10/17 05:00:37;;;;;;;5.87;4.10;;;15.00;99.90;;;;;;1916676;75;21117;-74
2022/10/17 05:03:30;;;;;;;6.58;4.30;;;14.90;99.90;;;;;;1918892;74;21190;-75
2022/10/17 05:06:24;;;;;;;5.87;4.72;;;14.90;99.90;;;;;;1924448;74;21104;-75
2022/10/17 05:09:16;;;;;;;8.25;6.08;;;15.10;99.90;;;;;;1915000;74;21099;-74
2022/10/17 05:12:08;;;;;;;8.18;5.45;;;15.10;99.90;;;;;;1911187;74;21169;-74
2022/10/17 05:15:02;;;;;;;8.60;5.70;;;15.10;99.90;;;;;;1911980;74;21048;-74
2022/10/17 05:17:57;;;;;;;8.25;5.20;;;15.00;99.90;;;;;;1912681;74;21153;-74
2022/10/17 05:20:49;;;;;;;8.18;5.40;;;15.10;99.90;;;;;;1912078;74;21167;-74
2022/10/17 05:23:40;;;;;;;5.20;4.53;;;15.00;99.90;;;;;;1912816;74;21080;-74
2022/10/17 05:26:32;;;;;;;7.35;4.50;;;15.00;99.90;;;;;;1912754;74;21155;-74
2022/10/17 05:29:24;;;;;;;7.00;5.78;;;15.10;99.90;;;;;;1912070;74;21062;-74
2022/10/17 05:32:17;;;;;;;8.28;6.53;;;15.10;99.90;;;;;;1911267;74;21063;-74
2022/10/17 05:35:09;;;;;;;7.28;6.58;;;15.20;99.90;;;;;;1917755;74;21534;-74
2022/10/17 05:38:00;;;;;;;7.92;6.40;;;15.10;99.90;;;;;;1919481;74;21099;-75
2022/10/17 05:40:52;;;;;;;8.55;5.10;;;15.10;99.90;;;;;;1918101;74;21510;-73
2022/10/17 05:43:43;;;;;;;8.88;5.17;;;15.10;99.90;;;;;;1917697;74;21133;-74
2022/10/17 05:46:36;;;;;;;6.90;5.03;;;15.10;99.90;;;;;;1902257;75;21098;-75
2022/10/17 05:49:27;;;;;;;6.45;3.62;;;15.10;99.90;;;;;;1912846;74;21212;-75
2022/10/17 05:52:19;;;;;;;4.67;3.58;;;15.10;99.90;;;;;;1930198;74;21121;-75
2022/10/17 05:55:16;;;;;;;7.83;3.65;;;15.00;99.90;;;;;;1926437;74;21121;-74
2022/10/17 05:58:09;;;;;;;3.87;2.67;;;15.00;99.90;;;;;;1902190;74;21165;-74
2022/10/17 06:01:06;;;;;;;6.53;3.20;;;15.00;99.90;;;;;;1917454;74;21213;-74
2022/10/17 06:03:59;;;;;;;7.10;3.30;;;15.00;99.90;;;;;;1914408;74;21188;-73
2022/10/17 06:06:51;;;;;;;8.88;2.70;;;15.00;99.90;;;;;;1915604;75;21106;-73
2022/10/17 06:09:43;;;;;;;6.67;2.98;;;15.00;99.90;;;;;;1925719;74;21133;-73
2022/10/17 06:12:34;;;;;;;6.55;3.20;;;15.00;99.90;;;;;;1916864;75;21113;-73
2022/10/17 06:15:26;;;;;;;5.22;3.00;;;14.90;99.90;;;;;;1927018;73;21084;-73
2022/10/17 06:18:19;;;;;;;6.15;3.27;;;15.00;99.90;;;;;;1909936;74;21232;-73
2022/10/17 06:21:13;;;;;;;4.33;3.33;;;15.00;99.90;;;;;;1865506;77;21133;-73
2022/10/17 06:24:06;;;;;;;6.67;3.80;;;15.00;99.90;;;;;;1887135;75;21059;-73
2022/10/17 06:27:00;;;;;;;7.83;3.25;;;15.00;99.90;;;;;;1850565;77;21237;-73
2022/10/17 06:29:51;;;;;;;4.83;3.20;;;15.10;99.90;;;;;;1867834;77;21072;-73
2022/10/17 06:32:44;;;;;;;7.00;3.17;;;15.00;99.90;;;;;;1847090;77;21169;-75
2022/10/17 06:35:35;;;;;;;8.43;3.40;;;15.10;99.90;;;;;;1848496;77;21078;-74
2022/10/17 06:38:27;;;;;;;5.53;2.22;;;15.10;99.90;;;;;;1835116;78;21141;-74
2022/10/17 06:41:19;;;;;;;11.88;2.98;;;15.20;99.90;;;;;;1905050;74;21095;-74
2022/10/17 06:44:13;;;;;;;5.12;2.52;;;15.30;99.90;;;;;;1904502;75;21108;-74
2022/10/17 06:47:09;;;;;;;4.47;2.60;;;15.40;99.90;;;;;;1904507;75;21171;-74
2022/10/17 06:50:01;;;;;;;7.50;3.00;;;15.40;99.90;;;;;;1917049;75;21101;-74
2022/10/17 06:52:54;;;;;;;4.78;2.65;;;15.40;99.90;;;;;;1916929;74;21562;-74
2022/10/17 06:56:05;;;;;;;5.85;3.05;;;15.50;99.90;;;;;;1904527;75;21088;-74
2022/10/17 07:01:55;;;;;;;10.15;3.52;;;15.50;99.90;;;;;;1951982;72;22632;-75
2022/10/17 07:04:48;;;;;;;4.33;2.47;;;15.60;99.90;;;;;;1884656;76;21117;-75
2022/10/17 07:07:39;;;;;;;5.25;2.83;;;15.70;99.90;;;;;;1897773;75;21116;-73
2022/10/17 07:10:36;;;;;;;7.97;3.40;;;15.70;99.90;;;;;;1887140;75;21143;-73
2022/10/17 07:13:24;;;;;;;8.03;3.30;;;15.70;99.90;;;;;;1884905;76;21161;-73
2022/10/17 07:16:16;;;;;;;6.60;3.22;;;15.80;99.90;;;;;;1904295;75;21168;-73
2022/10/17 07:19:09;;;;;;;6.15;2.98;;;15.80;99.90;;;;;;1899848;75;21125;-73
2022/10/17 07:22:02;;;;;;;7.37;3.20;;;15.90;99.90;;;;;;1899200;75;21035;-73
2022/10/17 07:24:55;;;;;;;6.55;2.90;;;15.90;99.90;;;;;;1899289;75;21098;-73
2022/10/17 07:27:52;;;;;;;6.40;2.85;;;15.90;99.90;;;;;;1906982;75;21121;-73
2022/10/17 07:30:50;;;;;;;3.65;2.70;;;16.00;99.90;;;;;;1869633;76;21588;-73
2022/10/17 07:33:44;;;;;;;7.58;2.85;;;16.10;99.90;;;;;;1902686;75;21114;-73
2022/10/17 07:36:36;;;;;;;7.30;2.60;;;16.10;99.90;;;;;;1897247;75;21090;-73
2022/10/17 07:39:30;;;;;;;5.53;2.60;;;16.20;99.90;;;;;;1895567;75;21092;-74
2022/10/17 07:42:21;;;;;;;9.83;5.55;;;16.20;99.90;;;;;;1917692;75;21136;-74
2022/10/17 07:45:14;;;;;;;5.35;3.10;;;16.30;99.90;;;;;;1897795;75;21065;-73
2022/10/17 07:48:07;;;;;;;11.65;3.10;;;16.30;99.90;;;;;;1884087;76;21183;-73
2022/10/17 07:51:05;;;;;;;5.40;2.85;;;16.40;99.90;;;;;;1906589;75;21573;-73
2022/10/17 07:54:01;;;;;;;4.22;2.52;;;16.40;99.90;;;;;;1884508;75;21106;-75
2022/10/17 07:56:53;;;;;;;6.30;2.75;;;16.40;99.90;;;;;;1907011;75;21083;-73
2022/10/17 07:59:46;;;;;;;5.33;2.90;;;16.50;99.90;;;;;;1903505;75;21126;-73
2022/10/17 08:02:38;;;;;;;6.42;2.77;;;16.60;99.90;;;;;;1913011;74;21198;-73
2022/10/17 08:05:30;;;;;;;6.67;2.77;;;16.70;99.90;;;;;;1911444;74;21124;-73
2022/10/17 08:08:21;;;;;;;6.08;2.45;;;16.90;99.90;;;;;;1924319;74;21052;-72
2022/10/17 08:11:15;;;;;;;7.22;3.10;;;17.00;99.90;;;;;;1914443;73;21095;-73
2022/10/17 08:14:07;;;;;;;7.28;2.67;;;17.10;99.90;;;;;;1900057;74;21513;-73
2022/10/17 08:16:58;;;;;;;3.40;2.40;;;17.20;99.90;;;;;;1922006;74;21074;-72
2022/10/17 08:19:49;;;;;;;11.03;3.62;;;17.30;99.90;;;;;;1878978;76;21162;-72
2022/10/17 08:22:40;;;;;;;9.15;2.90;;;17.40;99.90;;;;;;1899580;74;21063;-73
2022/10/17 08:25:32;;;;;;;5.78;3.12;;;17.40;99.90;;;;;;1911886;73;21286;-72
2022/10/17 08:28:23;;;;;;;7.05;2.58;;;17.50;99.90;;;;;;1924282;73;21098;-72
2022/10/17 08:31:17;;;;;;;9.73;3.05;;;17.50;99.90;;;;;;1845881;77;21677;-72
2022/10/17 08:34:09;;;;;;;6.53;4.60;;;17.70;99.90;;;;;;1922132;74;21175;-72
2022/10/17 08:37:00;;;;;;;27.15;5.42;;;17.70;99.90;;;;;;1875656;76;21207;-72
2022/10/17 08:39:51;;;;;;;9.38;3.77;;;17.80;99.90;;;;;;1909789;73;21167;-72
2022/10/17 08:42:56;;;;;;;12.18;3.70;;;17.80;99.90;;;;;;1878779;76;21157;-73
2022/10/17 08:45:51;;;;;;;5.33;2.80;;;17.90;99.90;;;;;;1913732;74;22300;-72
2022/10/17 08:48:44;;;;;;;8.08;2.45;;;18.00;99.90;;;;;;1930062;74;21083;-73
2022/10/17 08:51:39;;;;;;;6.45;3.37;;;18.10;99.90;;;;;;1926185;73;21150;-73
2022/10/17 08:54:35;;;;;;;5.90;2.62;;;18.10;99.90;;;;;;1911255;73;21672;-73
2022/10/17 08:57:27;;;;;;;6.55;3.00;;;18.10;99.90;;;;;;1916690;74;21171;-73
2022/10/17 09:00:21;;;;;;;7.95;3.05;;;18.10;99.90;;;;;;1849067;77;21160;-73
2022/10/17 09:03:23;;;;;;;6.40;3.20;;;18.20;99.90;;;;;;1919257;74;21184;-73
2022/10/17 09:06:28;;;;;;;9.48;2.80;;;18.30;99.90;;;;;;1896502;74;21235;-72
2022/10/17 09:09:27;;;;;;;5.05;3.08;;;18.30;99.90;;;;;;1866685;77;21055;-72
2022/10/17 09:12:23;;;;;;;6.78;2.33;;;18.30;99.90;;;;;;1906927;75;21159;-73
2022/10/17 09:15:40;;;;;;;4.53;2.22;;;18.40;99.90;;;;;;1871564;75;21170;-72
2022/10/17 09:18:42;;;;;;;8.35;2.62;;;18.40;99.90;;;;;;1883303;76;21137;-72
2022/10/17 09:21:40;;;;;;;5.70;2.40;;;18.40;99.90;;;;;;1890787;75;21048;-72
2022/10/17 09:27:24;;;;;;;9.93;2.80;;;18.60;99.90;;;;;;1938046;72;22118;-72
2022/10/17 09:30:34;;;;;;;6.05;2.65;;;18.70;99.90;;;;;;1893735;75;21102;-73
2022/10/17 09:33:29;;;;;;;6.10;2.75;;;18.80;99.90;;;;;;1898466;75;21350;-73
2022/10/17 09:36:25;;;;;;;5.85;2.90;;;18.90;99.90;;;;;;1914817;75;21140;-73
2022/10/17 09:39:18;;;;;;;9.05;2.60;;;19.00;99.90;;;;;;1915535;75;21113;-73
2022/10/17 09:42:14;;;;;;;5.37;2.50;;;19.10;99.90;;;;;;1915325;75;21098;-73
2022/10/17 09:45:14;;;;;;;8.38;2.80;;;19.20;99.90;;;;;;1915948;75;21160;-72
2022/10/17 09:48:10;;;;;;;7.80;2.90;;;19.30;99.90;;;;;;1899919;75;21088;-72
2022/10/17 09:51:01;;;;;;;6.78;3.00;;;19.30;99.90;;;;;;1916184;75;21046;-73
2022/10/17 09:53:57;;;;;;;7.28;2.95;;;19.30;99.90;;;;;;1915888;75;21098;-72
2022/10/17 09:57:04;;;;;;;5.85;2.77;;;19.30;99.90;;;;;;1912485;75;21094;-72
2022/10/17 10:00:00;;;;;;;8.43;2.85;;;19.30;99.90;;;;;;1917308;75;21059;-73
2022/10/17 10:02:53;;;;;;;6.40;2.87;;;19.30;99.90;;;;;;1916544;75;21503;-73
2022/10/17 10:05:59;;;;;;;6.83;2.67;;;19.40;99.90;;;;;;1898586;75;21127;-73
2022/10/17 10:08:52;;;;;;;8.90;3.02;;;19.50;99.90;;;;;;1896171;75;21110;-73
2022/10/17 10:11:50;;;;;;;8.00;2.60;;;19.60;99.90;;;;;;1916385;75;21082;-73
2022/10/17 10:14:41;;;;;;;3.90;2.30;;;19.60;99.90;;;;;;1916691;75;21131;-72
2022/10/17 10:17:41;;;;;;;8.30;2.75;;;19.60;99.90;;;;;;1916489;75;21132;-73
2022/10/17 10:20:35;;;;;;;8.48;2.75;;;19.60;99.90;;;;;;1916271;75;21180;-73
2022/10/17 10:23:38;;;;;;;4.70;2.77;;;19.70;99.90;;;;;;1892319;75;21154;-72
2022/10/17 10:26:34;;;;;;;5.90;2.72;;;19.70;99.90;;;;;;1853193;77;21186;-72
2022/10/17 10:29:31;;;;;;;8.90;3.25;;;19.80;99.90;;;;;;1853378;77;21152;-73
2022/10/17 10:32:24;;;;;;;5.25;3.50;;;19.60;99.90;;;;;;1853148;77;21107;-73
2022/10/17 10:35:37;;;;;;;4.90;2.50;;;19.70;99.90;;;;;;1854447;77;21116;-73
2022/10/17 10:38:28;;;;;;;7.85;3.67;;;19.80;99.90;;;;;;1838878;77;21589;-73
2022/10/17 10:44:15;;;;;;;6.47;3.17;;;20.00;99.90;;;;;;1950607;72;22157;-74
2022/10/17 10:47:17;;;;;;;9.73;3.47;;;20.00;99.90;;;;;;1906070;75;21204;-72
2022/10/17 10:50:20;;;;;;;5.37;2.25;;;20.20;99.90;;;;;;1885007;75;21114;-73
2022/10/17 10:53:18;;;;;;;6.95;2.30;;;20.20;99.90;;;;;;1917103;75;21099;-73
2022/10/17 10:56:13;;;;;;;4.47;2.33;;;20.40;99.90;;;;;;1901693;75;21133;-73
2022/10/17 10:59:08;;;;;;;6.10;2.10;;;20.50;99.90;;;;;;1859765;76;21058;-73
2022/10/17 11:02:03;;;;;;;3.02;2.30;;;20.70;99.90;;;;;;1894746;75;21263;-72
2022/10/17 11:04:58;;;;;;;2.27;1.90;;;20.80;99.90;;;;;;1892257;75;21071;-73
2022/10/17 11:10:44;;;;;;;6.15;2.10;;;21.10;99.90;;;;;;1941032;72;22141;-74
2022/10/17 11:23:04;;;;;;;3.00;1.62;;;21.60;99.90;;;;;;1916903;73;21490;-74
2022/10/17 11:26:00;;;;;;;5.15;1.70;;;21.70;99.90;;;;;;1926414;73;21098;-72
2022/10/17 11:28:52;;;;;;;2.92;2.05;;;21.80;99.90;;;;;;1936313;73;21136;-72
2022/10/17 11:31:47;;;;;;;8.40;2.30;;;21.90;99.90;;;;;;1934388;73;21087;-73
2022/10/17 11:38:14;;;;;;;6.42;2.40;;;21.90;99.90;;;;;;1925198;72;22289;-73
2022/10/17 11:44:33;;;;;;;6.25;1.90;;;22.10;99.90;;;;;;1955922;72;22179;-74
2022/10/17 11:51:28;;;;;;;6.67;2.00;;;22.30;99.90;;;;;;1905753;75;21056;-73
2022/10/17 11:54:32;;;;;;;4.20;1.85;;;22.40;99.90;;;;;;1898464;75;21087;-72
2022/10/17 11:57:52;;;;;;;2.58;2.30;;;22.50;99.90;;;;;;1894820;75;21155;-72
2022/10/17 12:00:59;;;;;;;3.98;2.47;;;22.60;99.90;;;;;;1895024;75;21155;-72
2022/10/17 12:04:13;;;;;;;2.35;1.70;;;22.70;99.90;;;;;;1895086;75;21192;-73
2022/10/17 12:07:10;;;;;;;6.72;1.80;;;22.70;99.90;;;;;;1895063;75;21076;-72
2022/10/17 12:10:06;;;;;;;6.30;2.00;;;22.70;99.90;;;;;;1890806;75;21052;-73
2022/10/17 12:12:57;;;;;;;6.20;1.80;;;22.70;99.90;;;;;;1906474;75;21161;-72
2022/10/17 12:15:49;;;;;;;4.97;2.10;;;22.90;99.90;;;;;;1900520;75;21050;-72
2022/10/17 12:18:41;;;;;;;3.50;1.62;;;23.00;99.90;;;;;;1895847;75;21113;-73
2022/10/17 12:21:43;;;;;;;2.50;1.67;;;23.20;99.90;;;;;;1892410;75;21569;-73
2022/10/17 12:24:41;;;;;;;2.85;1.80;;;23.30;99.90;;;;;;1888927;75;21226;-72
2022/10/17 12:27:44;;;;;;;4.28;1.60;;;23.40;99.90;;;;;;1894928;75;21055;-72
2022/10/17 12:30:36;;;;;;;5.30;1.62;;;23.50;99.90;;;;;;1896939;75;21063;-72
2022/10/17 12:33:33;;;;;;;4.25;1.77;;;23.60;99.90;;;;;;1884156;76;21071;-72
2022/10/17 12:36:52;;;;;;;3.05;1.65;;;23.70;99.90;;;;;;1906078;75;21109;-72
2022/10/17 12:39:44;;;;;;;3.52;1.92;;;23.80;99.90;;;;;;1896559;75;21092;-73
2022/10/17 12:42:55;;;;;;;4.22;1.70;;;23.90;99.90;;;;;;1888389;75;21161;-73
2022/10/17 12:45:48;;;;;;;4.53;1.90;;;23.90;99.90;;;;;;1891056;75;21063;-73
2022/10/17 12:56:09;;;;;;;3.25;1.80;;;24.00;99.90;;;;;;1898699;75;21596;-75
2022/10/17 12:59:09;;;;;;;3.02;1.72;;;24.10;99.90;;;;;;1886090;75;21116;-74
2022/10/17 13:02:06;;;;;;;3.00;1.50;;;24.10;99.90;;;;;;1905974;75;21131;-75
2022/10/17 13:04:59;;;;;;;;;;;24.10;99.90;;;;;;1889424;75;21122;-75
2022/10/17 13:07:51;;;;;;;4.30;2.02;;;24.10;99.90;;;;;;1897983;75;20124;-74
2022/10/17 13:10:46;;;;;;;4.20;1.80;;;24.10;99.90;;;;;;1898662;75;21166;-75
2022/10/17 13:13:41;;;;;;;4.92;1.82;;;24.00;99.90;;;;;;1895556;75;21110;-74
2022/10/17 13:16:40;;;;;;;5.22;1.50;;;24.10;99.90;;;;;;1895219;75;21635;-74
2022/10/17 13:19:40;;;;;;;2.55;1.45;;;24.10;99.90;;;;;;1907170;75;21501;-73
2022/10/17 13:22:33;;;;;;;3.67;1.80;;;24.20;99.90;;;;;;1902458;73;21147;-74
2022/10/17 13:25:25;;;;;;;2.22;1.60;;;24.30;99.90;;;;;;1903504;75;21102;-74
2022/10/17 13:28:16;;;;;;;4.37;1.75;;;24.30;99.90;;;;;;1895433;75;21087;-74
2022/10/17 13:31:09;;;;;;;2.85;1.47;;;24.30;99.90;;;;;;1890037;75;21687;-74
2022/10/17 13:34:02;;;;;;;5.17;1.50;;;24.20;99.90;;;;;;1906080;75;21447;-74
2022/10/17 13:36:55;;;;;;;3.42;1.57;;;24.10;99.90;;;;;;1900789;75;21083;-74
2022/10/17 13:39:48;;;;;;;6.67;2.00;;;24.10;99.90;;;;;;1901835;75;21196;-74
2022/10/17 13:42:42;;;;;;;3.02;1.35;;;24.10;99.90;;;;;;1900030;75;21171;-75
2022/10/17 13:45:36;;;;;;;6.35;1.50;;;24.20;99.90;;;;;;1906231;75;21059;-75
2022/10/17 13:48:31;;;;;;;6.17;1.70;;;24.20;99.90;;;;;;1886285;73;21599;-74
2022/10/17 13:51:23;;;;;;;4.75;1.60;;;24.30;99.90;;;;;;1917382;73;21113;-74
2022/10/17 13:54:36;;;;;;;5.47;1.95;;;24.20;99.90;;;;;;1825615;77;21128;-74
2022/10/17 13:57:35;;;;;;;4.53;1.60;;;24.30;99.90;;;;;;1901866;74;21612;-74
2022/10/17 14:00:29;;;;;;;3.00;1.55;;;24.30;99.90;;;;;;1864870;76;21230;-74
2022/10/17 14:03:22;;;;;;;3.30;1.60;;;24.40;99.90;;;;;;1901080;73;21170;-74
2022/10/17 14:06:18;;;;;;;8.65;2.00;;;24.30;99.90;;;;;;1869776;74;21881;-74
2022/10/17 14:09:18;;;;;;;2.55;1.50;;;24.30;99.90;;;;;;1914699;74;21131;-74
2022/10/17 14:12:12;;;;;;;2.80;1.65;;;24.30;99.90;;;;;;1910838;74;21109;-74
2022/10/17 14:15:05;;;;;;;2.37;1.62;;;24.30;99.90;;;;;;1910909;73;21054;-74
2022/10/17 14:18:01;;;;;;;3.70;1.80;;;24.30;99.90;;;;;;1927451;73;21115;-74
2022/10/17 14:20:54;;;;;;;6.70;2.05;;;24.60;99.90;;;;;;1919552;74;21122;-74
2022/10/17 14:23:48;;;;;;;4.17;2.02;;;24.50;99.90;;;;;;1898658;74;21112;-74
2022/10/17 14:26:47;;;;;;;5.47;1.95;;;24.40;99.90;;;;;;1908994;74;21123;-74
2022/10/17 14:29:53;;;;;;;4.97;1.60;;;24.20;99.90;;;;;;1909818;74;21656;-75
2022/10/17 14:32:44;;;;;;;2.35;1.60;;;24.20;99.90;;;;;;1909947;74;21149;-75
2022/10/17 14:35:38;;;;;;;4.20;1.67;;;24.20;99.90;;;;;;1910451;74;21147;-75
2022/10/17 14:38:31;;;;;;;3.12;1.85;;;24.20;99.90;;;;;;1916221;74;21194;-75
2022/10/17 14:41:26;;;;;;;5.87;2.05;;;24.20;99.90;;;;;;1917606;74;21151;-83
2022/10/17 14:44:26;;;;;;;5.22;2.10;;;24.20;99.90;;;;;;1898971;74;21550;-72
2022/10/17 14:47:20;;;;;;;4.87;1.82;;;24.10;99.90;;;;;;1846874;77;21097;-72
2022/10/17 14:50:24;;;;;;;2.92;2.08;;;24.10;99.90;;;;;;1919113;74;21050;-73
2022/10/17 14:53:22;;;;;;;3.12;1.95;;;24.00;99.90;;;;;;1916585;73;21095;-71
2022/10/17 14:56:25;;;;;;;4.55;2.00;;;23.90;99.90;;;;;;1900203;75;21129;-72
2022/10/17 14:59:21;;;;;;;4.15;1.92;;;24.00;99.90;;;;;;1850291;77;21665;-72
2022/10/17 15:04:52;;;;;;;4.15;2.10;;;24.00;99.90;;;;;;1955721;72;22234;-72
2022/10/17 15:07:44;;;;;;;2.27;1.98;;;23.80;99.90;;;;;;1872197;76;21063;-72
2022/10/17 15:10:40;;;;;;;3.08;2.10;;;23.80;99.90;;;;;;1885217;75;21065;-71
2022/10/17 15:13:30;;;;;;;5.85;2.10;;;23.80;99.90;;;;;;1883812;75;21601;-71
2022/10/17 15:16:24;;;;;;;3.50;2.08;;;23.70;99.90;;;;;;1883032;75;21193;-72
2022/10/17 15:19:15;;;;;;;3.62;1.90;;;23.80;99.90;;;;;;1893855;75;21083;-72
2022/10/17 15:22:06;;;;;;;3.62;1.82;;;23.90;99.90;;;;;;1903873;74;21051;-72
2022/10/17 15:24:57;;;;;;;3.87;2.10;;;23.90;99.90;;;;;;1894327;75;21092;-72
2022/10/17 15:27:48;;;;;;;4.58;2.30;;;23.80;99.90;;;;;;1898370;75;21127;-72
2022/10/17 15:30:40;;;;;;;3.52;2.27;;;23.90;99.90;;;;;;1884651;75;21071;-72
2022/10/17 15:33:31;;;;;;;4.62;2.15;;;24.10;99.90;;;;;;1872912;76;21075;-72
2022/10/17 15:36:27;;;;;;;4.90;2.20;;;24.10;99.90;;;;;;1872553;75;21052;-72
2022/10/17 15:39:18;;;;;;;4.33;2.12;;;24.10;99.90;;;;;;1894434;75;21122;-70
2022/10/17 15:42:12;;;;;;;3.37;2.02;;;23.80;99.90;;;;;;1894545;75;21128;-71
2022/10/17 15:45:06;;;;;;;2.90;1.90;;;23.50;99.90;;;;;;1887400;75;21123;-72
2022/10/17 15:48:01;;;;;;;5.58;2.20;;;23.30;99.90;;;;;;1885608;75;21050;-71
2022/10/17 15:50:52;;;;;;;3.70;2.35;;;23.30;99.90;;;;;;1875138;75;21162;-72
2022/10/17 15:53:44;;;;;;;2.62;2.33;;;23.20;99.90;;;;;;1892495;75;21107;-72